Northeast Gulf: Past 24 Hour Conditions

 

Banquereau - 44139

08:00 AM ADT 31 October 2014Buoy position: 44.27N 57.08W
This table is a summary of hourly weather conditions for the past 24 hours.
Date / Time
(ADT)
Wind(knots) Wave height(m) Wave period(s) Pressure(kPa) Air tempC) Water tempC)
31 October 2014
8:00 NNW 14 gust 16 2.4 8.0 101.5 12 13
7:00 NNW 16 gust 19 2.3 10.0 101.4 11 13
6:00 NNW 14 gust 18 2.4 10.0 101.3 12 13
5:00 NW 10 gust 12 2.3 9.0 101.2 11 13
4:00 NW 14 gust 16 2.3 8.0 101.2 11 13
3:00 NW 14 gust 16 2.3 9.0 101.2 11 13
2:00 NW 12 gust 12 2.4 8.0 101.1 12 13
1:00 NW 14 gust 16 2.4 8.0 101.0 12 13
0:00 NNW 12 gust 14 2.5 8.0 101.0 12 13
30 October 2014
23:00 WNW 16 gust 18 2.5 8.0 101.0 13 13
22:00 SW 10 gust 12 2.3 8.0 101.0 15 13
21:00 SSW 10 gust 12 2.5 8.0 101.0 15 13
20:00 SW 12 gust 14 2.7 8.0 101.0 15 13
19:00 SW 14 gust 18 2.4 8.0 101.0 15 13
18:00 S 19 gust 23 2.4 8.0 100.9 16 13
17:00 S 18 gust 19 2.2 8.0 100.9 16 13
16:00 S 18 gust 21 2.2 8.0 101.0 16 13
15:00 S 18 gust 21 2.1 7.0 101.0 16 13
14:00 S 18 gust 19 2.1 7.0 101.0 16 13
13:00 S 18 gust 21 2.1 6.0 101.1 16 13
12:00 S 19 gust 23 2.0 7.0 101.2 16 13
11:00 S 19 gust 23 1.9 7.0 101.2 16 13
10:00 S 19 gust 23 1.8 6.0 101.3 16 13
9:00 S 19 gust 21 1.9 7.0 101.3 16 13
8:00 S 19 gust 21 1.9 6.0 101.3 16 13
 
Map of Atlantic - Newfoundland marine weather areas Southwestern Grand Banks - 44138 Banquereau - 44139 Tail of the Bank - 44140 Nickerson Bank - 44251 Northeast Burgeo Bank - 44255 Blanc-Sablon Airport Cap Whittle Chevery Natashquan Airport Heath Point Miscou Island Grand Étang Ingonish Beach North Mountain St.Paul Island J.A. Douglas McCurdy Sydney Airport Charlottetown Airport East Point North Cape Argentia Bonavista Burgeo Cape Race Corner Brook Daniel's Harbour Englee Ferolle Point La Scie Port aux Basques Rocky Harbour Sagona Island St. Anthony Airport St. John's Int'l Airport St. Lawrence Stephenville Airport Twillingate Winterland Wreckhouse Cartwright Airport Mary's Harbour Grates Cove Pool's Island Marticot Island Long Pond Îles de la Madeleine Airport
Legend: buoyBuoy land stationLand Station